sensor_id;sensor_type;location;lat;lon;timestamp;pressure;altitude;pressure_sealevel;temperature;humidity
77023;BME280;65952;51.440;-2.054;2023-07-29T00:00:41;99296.94;;;18.31;71.40
77023;BME280;65952;51.440;-2.054;2023-07-29T00:03:06;99293.91;;;18.16;71.81
77023;BME280;65952;51.440;-2.054;2023-07-29T00:05:32;99285.84;;;18.21;71.72
77023;BME280;65952;51.440;-2.054;2023-07-29T00:07:57;99289.66;;;18.20;71.72
77023;BME280;65952;51.440;-2.054;2023-07-29T00:10:23;99299.78;;;18.25;71.57
77023;BME280;65952;51.440;-2.054;2023-07-29T00:12:48;99299.34;;;18.16;71.66
77023;BME280;65952;51.440;-2.054;2023-07-29T00:15:14;99297.56;;;18.22;71.52
77023;BME280;65952;51.440;-2.054;2023-07-29T00:17:39;99296.53;;;18.11;71.79
77023;BME280;65952;51.440;-2.054;2023-07-29T00:20:06;99299.34;;;18.16;71.36
77023;BME280;65952;51.440;-2.054;2023-07-29T00:22:31;99291.69;;;18.13;71.67
77023;BME280;65952;51.440;-2.054;2023-07-29T00:24:57;99289.69;;;18.08;71.65
77023;BME280;65952;51.440;-2.054;2023-07-29T00:27:23;99289.66;;;18.20;71.22
77023;BME280;65952;51.440;-2.054;2023-07-29T00:29:49;99286.34;;;18.18;71.07
77023;BME280;65952;51.440;-2.054;2023-07-29T00:32:14;99273.84;;;18.17;71.25
77023;BME280;65952;51.440;-2.054;2023-07-29T00:34:40;99269.34;;;18.23;70.97
77023;BME280;65952;51.440;-2.054;2023-07-29T00:37:05;99275.25;;;18.19;70.96
77023;BME280;65952;51.440;-2.054;2023-07-29T00:39:32;99266.75;;;18.16;71.04
77023;BME280;65952;51.440;-2.054;2023-07-29T00:41:58;99267.09;;;18.19;70.95
77023;BME280;65952;51.440;-2.054;2023-07-29T00:44:23;99260.25;;;18.17;71.19
77023;BME280;65952;51.440;-2.054;2023-07-29T00:46:53;99258.84;;;18.14;71.13
77023;BME280;65952;51.440;-2.054;2023-07-29T00:49:20;99254.22;;;18.15;71.04
77023;BME280;65952;51.440;-2.054;2023-07-29T00:51:46;99254.41;;;18.08;71.00
77023;BME280;65952;51.440;-2.054;2023-07-29T00:54:11;99248.38;;;18.06;71.33
77023;BME280;65952;51.440;-2.054;2023-07-29T00:56:37;99244.59;;;18.07;71.27
77023;BME280;65952;51.440;-2.054;2023-07-29T00:59:03;99247.81;;;18.04;71.23
77023;BME280;65952;51.440;-2.054;2023-07-29T01:01:32;99235.28;;;18.03;71.17
77023;BME280;65952;51.440;-2.054;2023-07-29T01:03:58;99238.50;;;18.00;71.34
77023;BME280;65952;51.440;-2.054;2023-07-29T01:06:38;99240.97;;;18.01;70.90
77023;BME280;65952;51.440;-2.054;2023-07-29T01:12:13;99231.91;;;17.96;71.24
77023;BME280;65952;51.440;-2.054;2023-07-29T01:14:59;99238.25;;;17.90;71.64
77023;BME280;65952;51.440;-2.054;2023-07-29T01:17:35;99241.38;;;17.81;71.92
77023;BME280;65952;51.440;-2.054;2023-07-29T01:20:07;99241.84;;;17.78;71.74
77023;BME280;65952;51.440;-2.054;2023-07-29T01:22:34;99240.19;;;17.77;71.79
77023;BME280;65952;51.440;-2.054;2023-07-29T01:25:00;99241.72;;;17.85;71.39
77023;BME280;65952;51.440;-2.054;2023-07-29T01:27:26;99239.00;;;17.85;71.59
77023;BME280;65952;51.440;-2.054;2023-07-29T01:29:53;99242.78;;;17.84;71.47
77023;BME280;65952;51.440;-2.054;2023-07-29T01:35:17;99236.50;;;17.83;71.16
77023;BME280;65952;51.440;-2.054;2023-07-29T01:37:48;99238.16;;;17.84;71.32
77023;BME280;65952;51.440;-2.054;2023-07-29T01:40:15;99243.13;;;17.87;70.97
77023;BME280;65952;51.440;-2.054;2023-07-29T01:42:41;99241.47;;;17.86;70.93
77023;BME280;65952;51.440;-2.054;2023-07-29T01:45:06;99230.38;;;17.88;71.14
77023;BME280;65952;51.440;-2.054;2023-07-29T01:47:32;99239.91;;;17.91;70.75
77023;BME280;65952;51.440;-2.054;2023-07-29T01:49:57;99240.50;;;17.93;70.77
77023;BME280;65952;51.440;-2.054;2023-07-29T01:52:23;99238.84;;;17.92;70.56
77023;BME280;65952;51.440;-2.054;2023-07-29T01:54:48;99235.31;;;17.91;70.72
77023;BME280;65952;51.440;-2.054;2023-07-29T01:57:13;99226.84;;;17.87;70.55
77023;BME280;65952;51.440;-2.054;2023-07-29T01:59:39;99226.50;;;17.84;70.89
77023;BME280;65952;51.440;-2.054;2023-07-29T02:02:05;99227.81;;;17.81;70.91
77023;BME280;65952;51.440;-2.054;2023-07-29T02:04:31;99236.03;;;17.86;70.67
77023;BME280;65952;51.440;-2.054;2023-07-29T02:06:56;99231.94;;;17.84;70.65
77023;BME280;65952;51.440;-2.054;2023-07-29T02:09:21;99228.28;;;17.78;70.63
77023;BME280;65952;51.440;-2.054;2023-07-29T02:11:47;99231.41;;;17.70;71.10
77023;BME280;65952;51.440;-2.054;2023-07-29T02:14:12;99229.75;;;17.69;71.02
77023;BME280;65952;51.440;-2.054;2023-07-29T02:16:38;99226.31;;;17.74;70.76
77023;BME280;65952;51.440;-2.054;2023-07-29T02:19:04;99223.97;;;17.65;71.01
77023;BME280;65952;51.440;-2.054;2023-07-29T02:21:29;99228.69;;;17.70;70.85
77023;BME280;65952;51.440;-2.054;2023-07-29T02:23:55;99227.75;;;17.64;71.04
77023;BME280;65952;51.440;-2.054;2023-07-29T02:26:20;99221.75;;;17.62;71.04
77023;BME280;65952;51.440;-2.054;2023-07-29T02:28:45;99217.84;;;17.58;71.22
77023;BME280;65952;51.440;-2.054;2023-07-29T02:31:21;99222.22;;;17.59;70.99
77023;BME280;65952;51.440;-2.054;2023-07-29T02:33:47;99223.91;;;17.48;71.18
77023;BME280;65952;51.440;-2.054;2023-07-29T02:36:13;99232.16;;;17.53;70.89
77023;BME280;65952;51.440;-2.054;2023-07-29T02:38:39;99230.50;;;17.52;70.71
77023;BME280;65952;51.440;-2.054;2023-07-29T02:41:05;99226.94;;;17.52;70.77
77023;BME280;65952;51.440;-2.054;2023-07-29T02:43:30;99223.91;;;17.48;70.77
77023;BME280;65952;51.440;-2.054;2023-07-29T02:45:55;99220.59;;;17.46;70.80
77023;BME280;65952;51.440;-2.054;2023-07-29T02:48:21;99224.97;;;17.47;70.57
77023;BME280;65952;51.440;-2.054;2023-07-29T02:50:46;99217.06;;;17.46;70.73
77023;BME280;65952;51.440;-2.054;2023-07-29T02:53:12;99214.69;;;17.49;70.35
77023;BME280;65952;51.440;-2.054;2023-07-29T02:55:40;99206.44;;;17.44;70.52
77023;BME280;65952;51.440;-2.054;2023-07-29T02:58:06;99202.44;;;17.47;70.63
77023;BME280;65952;51.440;-2.054;2023-07-29T03:00:32;99209.25;;;17.49;70.51
77023;BME280;65952;51.440;-2.054;2023-07-29T03:02:58;99212.94;;;17.43;70.43
77023;BME280;65952;51.440;-2.054;2023-07-29T03:05:24;99209.19;;;17.32;70.79
77023;BME280;65952;51.440;-2.054;2023-07-29T03:07:50;99203.03;;;17.37;70.55
77023;BME280;65952;51.440;-2.054;2023-07-29T03:10:15;99198.66;;;17.48;70.21
77023;BME280;65952;51.440;-2.054;2023-07-29T03:12:41;99211.75;;;17.51;70.04
77023;BME280;65952;51.440;-2.054;2023-07-29T03:15:06;99203.38;;;17.41;70.12
77023;BME280;65952;51.440;-2.054;2023-07-29T03:17:32;99198.56;;;17.43;70.17
77023;BME280;65952;51.440;-2.054;2023-07-29T03:19:57;99196.19;;;17.46;69.77
77023;BME280;65952;51.440;-2.054;2023-07-29T03:22:23;99200.22;;;17.44;69.98
77023;BME280;65952;51.440;-2.054;2023-07-29T03:24:48;99195.25;;;17.41;70.09
77023;BME280;65952;51.440;-2.054;2023-07-29T03:27:14;99206.44;;;17.44;69.90
77023;BME280;65952;51.440;-2.054;2023-07-29T03:29:41;99200.47;;;17.42;69.95
77023;BME280;65952;51.440;-2.054;2023-07-29T03:32:07;99205.63;;;17.44;69.80
77023;BME280;65952;51.440;-2.054;2023-07-29T03:34:32;99208.09;;;17.45;69.67
77023;BME280;65952;51.440;-2.054;2023-07-29T03:37:00;99211.06;;;17.44;69.76
77023;BME280;65952;51.440;-2.054;2023-07-29T03:39:26;99208.00;;;17.40;69.84
77023;BME280;65952;51.440;-2.054;2023-07-29T03:41:51;99204.13;;;17.36;69.85
77023;BME280;65952;51.440;-2.054;2023-07-29T03:44:16;99202.28;;;17.25;70.32
77023;BME280;65952;51.440;-2.054;2023-07-29T03:46:43;99202.63;;;17.28;70.39
77023;BME280;65952;51.440;-2.054;2023-07-29T03:49:09;99214.75;;;17.26;70.43
77023;BME280;65952;51.440;-2.054;2023-07-29T03:51:34;99216.41;;;17.27;70.37
77023;BME280;65952;51.440;-2.054;2023-07-29T03:54:00;99205.09;;;17.30;70.26
77023;BME280;65952;51.440;-2.054;2023-07-29T03:56:25;99206.84;;;17.24;70.61
77023;BME280;65952;51.440;-2.054;2023-07-29T03:58:52;99200.22;;;17.32;70.36
77023;BME280;65952;51.440;-2.054;2023-07-29T04:01:18;99200.63;;;17.24;70.25
77023;BME280;65952;51.440;-2.054;2023-07-29T04:03:45;99206.41;;;17.15;70.89
77023;BME280;65952;51.440;-2.054;2023-07-29T04:06:11;99214.41;;;17.10;71.34
77023;BME280;65952;51.440;-2.054;2023-07-29T04:08:36;99215.03;;;17.12;71.26
77023;BME280;65952;51.440;-2.054;2023-07-29T04:11:02;99215.03;;;17.12;71.18
77023;BME280;65952;51.440;-2.054;2023-07-29T04:13:27;99214.41;;;17.10;71.05
77023;BME280;65952;51.440;-2.054;2023-07-29T04:15:53;99207.25;;;17.04;71.38
77023;BME280;65952;51.440;-2.054;2023-07-29T04:18:18;99211.84;;;17.03;71.69
77023;BME280;65952;51.440;-2.054;2023-07-29T04:20:43;99207.72;;;17.01;71.49
77023;BME280;65952;51.440;-2.054;2023-07-29T04:23:09;99212.31;;;17.00;71.58
77023;BME280;65952;51.440;-2.054;2023-07-29T04:25:34;99211.38;;;16.95;71.83
77023;BME280;65952;51.440;-2.054;2023-07-29T04:27:59;99214.56;;;16.92;72.06
77023;BME280;65952;51.440;-2.054;2023-07-29T04:30:25;99219.63;;;16.88;72.10
77023;BME280;65952;51.440;-2.054;2023-07-29T04:32:50;99218.41;;;16.84;72.58
77023;BME280;65952;51.440;-2.054;2023-07-29T04:35:16;99223.75;;;16.90;72.18
77023;BME280;65952;51.440;-2.054;2023-07-29T04:37:41;99237.28;;;16.90;72.28
77023;BME280;65952;51.440;-2.054;2023-07-29T04:40:07;99240.00;;;16.90;72.05
77023;BME280;65952;51.440;-2.054;2023-07-29T04:42:32;99233.75;;;16.90;72.27
77023;BME280;65952;51.440;-2.054;2023-07-29T04:44:58;99233.31;;;16.93;72.27
77023;BME280;65952;51.440;-2.054;2023-07-29T04:47:23;99239.56;;;16.94;72.10
77023;BME280;65952;51.440;-2.054;2023-07-29T04:49:49;99238.50;;;16.95;72.38
77023;BME280;65952;51.440;-2.054;2023-07-29T04:52:14;99225.41;;;16.92;72.46
77023;BME280;65952;51.440;-2.054;2023-07-29T04:54:40;99227.06;;;16.93;72.39
77023;BME280;65952;51.440;-2.054;2023-07-29T04:57:06;99227.16;;;16.98;72.58
77023;BME280;65952;51.440;-2.054;2023-07-29T04:59:31;99227.75;;;17.00;72.39
77023;BME280;65952;51.440;-2.054;2023-07-29T05:01:57;99227.06;;;17.04;72.23
77023;BME280;65952;51.440;-2.054;2023-07-29T05:04:23;99228.13;;;17.03;72.35
77023;BME280;65952;51.440;-2.054;2023-07-29T05:06:48;99232.47;;;17.04;72.56
77023;BME280;65952;51.440;-2.054;2023-07-29T05:09:15;99229.38;;;17.13;72.19
77023;BME280;65952;51.440;-2.054;2023-07-29T05:11:41;99234.56;;;17.14;72.78
77023;BME280;65952;51.440;-2.054;2023-07-29T05:14:06;99241.41;;;17.29;72.31
77023;BME280;65952;51.440;-2.054;2023-07-29T05:16:32;99242.09;;;17.36;71.94
77023;BME280;65952;51.440;-2.054;2023-07-29T05:18:58;99247.50;;;17.48;71.55
77023;BME280;65952;51.440;-2.054;2023-07-29T05:21:23;99247.94;;;17.57;71.75
77023;BME280;65952;51.440;-2.054;2023-07-29T05:23:48;99257.03;;;17.62;71.52
77023;BME280;65952;51.440;-2.054;2023-07-29T05:26:14;99250.06;;;17.54;71.74
77023;BME280;65952;51.440;-2.054;2023-07-29T05:28:39;99246.38;;;17.61;71.35
77023;BME280;65952;51.440;-2.054;2023-07-29T05:31:04;99245.69;;;17.65;71.11
77023;BME280;65952;51.440;-2.054;2023-07-29T05:33:30;99247.34;;;17.66;71.28
77023;BME280;65952;51.440;-2.054;2023-07-29T05:35:55;99249.34;;;17.71;71.22
77023;BME280;65952;51.440;-2.054;2023-07-29T05:38:24;99244.47;;;17.73;70.88
77023;BME280;65952;51.440;-2.054;2023-07-29T05:40:49;99242.28;;;17.87;70.45
77023;BME280;65952;51.440;-2.054;2023-07-29T05:43:14;99241.94;;;17.83;70.33
77023;BME280;65952;51.440;-2.054;2023-07-29T05:45:40;99242.84;;;18.01;69.52
77023;BME280;65952;51.440;-2.054;2023-07-29T05:48:05;99238.09;;;18.08;69.15
77023;BME280;65952;51.440;-2.054;2023-07-29T05:50:31;99242.56;;;18.14;69.18
77023;BME280;65952;51.440;-2.054;2023-07-29T05:52:56;99243.16;;;18.16;68.93
77023;BME280;65952;51.440;-2.054;2023-07-29T05:55:22;99241.25;;;18.17;68.95
77023;BME280;65952;51.440;-2.054;2023-07-29T05:57:47;99239.34;;;18.17;68.69
77023;BME280;65952;51.440;-2.054;2023-07-29T06:00:13;99244.53;;;18.19;68.71
77023;BME280;65952;51.440;-2.054;2023-07-29T06:02:39;99246.97;;;18.03;68.75
77023;BME280;65952;51.440;-2.054;2023-07-29T06:05:06;99246.09;;;18.15;68.72
77023;BME280;65952;51.440;-2.054;2023-07-29T06:07:32;99250.97;;;18.30;68.74
77023;BME280;65952;51.440;-2.054;2023-07-29T06:09:59;99255.28;;;18.60;68.13
77023;BME280;65952;51.440;-2.054;2023-07-29T06:12:24;99245.47;;;18.76;66.85
77023;BME280;65952;51.440;-2.054;2023-07-29T06:14:50;99239.56;;;18.96;66.42
77023;BME280;65952;51.440;-2.054;2023-07-29T06:17:15;99240.66;;;19.17;65.70
77023;BME280;65952;51.440;-2.054;2023-07-29T06:19:40;99243.25;;;19.29;65.47
77023;BME280;65952;51.440;-2.054;2023-07-29T06:22:06;99246.16;;;19.44;64.49
77023;BME280;65952;51.440;-2.054;2023-07-29T06:24:31;99246.06;;;19.56;64.13
77023;BME280;65952;51.440;-2.054;2023-07-29T06:26:58;99242.66;;;19.66;63.06
77023;BME280;65952;51.440;-2.054;2023-07-29T06:29:23;99252.31;;;19.79;63.25
77023;BME280;65952;51.440;-2.054;2023-07-29T06:31:48;99248.31;;;20.41;62.16
77023;BME280;65952;51.440;-2.054;2023-07-29T06:34:16;99240.50;;;22.04;57.16
77023;BME280;65952;51.440;-2.054;2023-07-29T06:36:42;99243.50;;;23.97;50.68
77023;BME280;65952;51.440;-2.054;2023-07-29T06:39:07;99235.53;;;24.75;47.86
77023;BME280;65952;51.440;-2.054;2023-07-29T06:41:33;99238.84;;;25.02;48.15
77023;BME280;65952;51.440;-2.054;2023-07-29T06:43:58;99241.69;;;26.07;45.49
77023;BME280;65952;51.440;-2.054;2023-07-29T06:46:23;99239.81;;;27.07;42.44
77023;BME280;65952;51.440;-2.054;2023-07-29T06:48:49;99230.91;;;27.80;41.27
77023;BME280;65952;51.440;-2.054;2023-07-29T06:51:14;99233.19;;;28.60;40.19
77023;BME280;65952;51.440;-2.054;2023-07-29T06:53:40;99239.78;;;29.35;37.57
77023;BME280;65952;51.440;-2.054;2023-07-29T06:56:05;99234.06;;;29.90;37.52
77023;BME280;65952;51.440;-2.054;2023-07-29T06:58:31;99234.56;;;30.36;35.36
77023;BME280;65952;51.440;-2.054;2023-07-29T07:00:56;99240.78;;;31.15;33.58
77023;BME280;65952;51.440;-2.054;2023-07-29T07:03:22;99244.28;;;31.33;33.39
77023;BME280;65952;51.440;-2.054;2023-07-29T07:05:47;99242.00;;;31.35;33.52
77023;BME280;65952;51.440;-2.054;2023-07-29T07:08:13;99245.75;;;31.31;33.55
77023;BME280;65952;51.440;-2.054;2023-07-29T07:10:38;99244.66;;;31.53;32.54
77023;BME280;65952;51.440;-2.054;2023-07-29T07:13:03;99254.22;;;31.34;33.19
77023;BME280;65952;51.440;-2.054;2023-07-29T07:15:29;99236.13;;;31.67;33.33
77023;BME280;65952;51.440;-2.054;2023-07-29T07:17:54;99239.09;;;31.23;32.71
77023;BME280;65952;51.440;-2.054;2023-07-29T07:20:19;99237.84;;;31.50;33.21
77023;BME280;65952;51.440;-2.054;2023-07-29T07:22:45;99233.84;;;31.30;32.90
77023;BME280;65952;51.440;-2.054;2023-07-29T07:25:10;99241.81;;;31.70;32.26
77023;BME280;65952;51.440;-2.054;2023-07-29T07:27:36;99256.38;;;30.20;33.20
77023;BME280;65952;51.440;-2.054;2023-07-29T07:30:03;99261.47;;;28.20;36.67
77023;BME280;65952;51.440;-2.054;2023-07-29T07:32:28;99262.88;;;26.07;41.20
77023;BME280;65952;51.440;-2.054;2023-07-29T07:34:54;99265.69;;;24.41;44.71
77023;BME280;65952;51.440;-2.054;2023-07-29T07:37:19;99274.22;;;23.18;48.69
77023;BME280;65952;51.440;-2.054;2023-07-29T07:39:45;99260.22;;;22.32;50.64
77023;BME280;65952;51.440;-2.054;2023-07-29T07:42:10;99259.59;;;21.84;52.98
77023;BME280;65952;51.440;-2.054;2023-07-29T07:44:36;99271.28;;;21.64;53.33
77023;BME280;65952;51.440;-2.054;2023-07-29T07:47:01;99265.88;;;21.26;54.14
77023;BME280;65952;51.440;-2.054;2023-07-29T07:49:27;99277.09;;;21.30;54.50
77023;BME280;65952;51.440;-2.054;2023-07-29T07:51:52;99274.09;;;22.00;53.04
77023;BME280;65952;51.440;-2.054;2023-07-29T07:54:17;99268.16;;;22.23;52.55
77023;BME280;65952;51.440;-2.054;2023-07-29T07:56:43;99278.28;;;22.33;52.00
77023;BME280;65952;51.440;-2.054;2023-07-29T07:59:09;99282.16;;;22.43;51.86
77023;BME280;65952;51.440;-2.054;2023-07-29T08:01:35;99281.53;;;23.44;50.21
77023;BME280;65952;51.440;-2.054;2023-07-29T08:04:01;99277.78;;;24.40;47.64
77023;BME280;65952;51.440;-2.054;2023-07-29T08:06:26;99269.88;;;26.18;44.07
77023;BME280;65952;51.440;-2.054;2023-07-29T08:08:52;99273.09;;;27.80;40.34
77023;BME280;65952;51.440;-2.054;2023-07-29T08:11:17;99274.50;;;27.92;38.99
77023;BME280;65952;51.440;-2.054;2023-07-29T08:13:43;99274.91;;;27.15;39.66
77023;BME280;65952;51.440;-2.054;2023-07-29T08:16:08;99276.84;;;25.91;42.29
77023;BME280;65952;51.440;-2.054;2023-07-29T08:18:34;99284.34;;;25.61;42.95
77023;BME280;65952;51.440;-2.054;2023-07-29T08:21:00;99277.94;;;24.54;45.31
77023;BME280;65952;51.440;-2.054;2023-07-29T08:23:29;99279.41;;;23.96;47.24
77023;BME280;65952;51.440;-2.054;2023-07-29T08:25:57;99278.25;;;24.07;46.16
77023;BME280;65952;51.440;-2.054;2023-07-29T08:28:27;99279.63;;;24.05;46.59
77023;BME280;65952;51.440;-2.054;2023-07-29T08:30:53;99281.63;;;23.89;47.54
77023;BME280;65952;51.440;-2.054;2023-07-29T08:33:18;99276.66;;;23.91;46.79
77023;BME280;65952;51.440;-2.054;2023-07-29T08:35:44;99267.22;;;24.23;46.77
77023;BME280;65952;51.440;-2.054;2023-07-29T08:38:09;99278.31;;;25.11;45.73
77023;BME280;65952;51.440;-2.054;2023-07-29T08:40:38;99279.56;;;25.72;43.00
77023;BME280;65952;51.440;-2.054;2023-07-29T08:43:06;99280.25;;;25.05;45.02
77023;BME280;65952;51.440;-2.054;2023-07-29T08:45:34;99282.28;;;24.65;44.96
77023;BME280;65952;51.440;-2.054;2023-07-29T08:48:02;99281.59;;;23.99;45.66
77023;BME280;65952;51.440;-2.054;2023-07-29T08:50:32;99273.81;;;24.56;45.25
77023;BME280;65952;51.440;-2.054;2023-07-29T08:52:59;99278.91;;;26.00;43.13
77023;BME280;65952;51.440;-2.054;2023-07-29T08:55:26;99280.03;;;27.36;41.30
77023;BME280;65952;51.440;-2.054;2023-07-29T08:57:52;99286.75;;;27.99;40.14
77023;BME280;65952;51.440;-2.054;2023-07-29T09:00:19;99276.81;;;28.72;36.69
77023;BME280;65952;51.440;-2.054;2023-07-29T09:02:44;99285.16;;;28.58;36.20
77023;BME280;65952;51.440;-2.054;2023-07-29T09:05:10;99277.19;;;27.83;37.52
77023;BME280;65952;51.440;-2.054;2023-07-29T09:07:36;99274.41;;;27.27;38.50
77023;BME280;65952;51.440;-2.054;2023-07-29T09:10:02;99278.63;;;27.66;38.17
77023;BME280;65952;51.440;-2.054;2023-07-29T09:12:28;99291.44;;;27.15;38.64
77023;BME280;65952;51.440;-2.054;2023-07-29T09:14:53;99288.75;;;26.25;40.19
77023;BME280;65952;51.440;-2.054;2023-07-29T09:17:20;99280.75;;;25.66;42.26
77023;BME280;65952;51.440;-2.054;2023-07-29T09:19:48;99290.59;;;24.49;45.19
77023;BME280;65952;51.440;-2.054;2023-07-29T09:22:20;99293.75;;;24.27;44.92
77023;BME280;65952;51.440;-2.054;2023-07-29T09:24:47;99293.06;;;24.06;45.73
77023;BME280;65952;51.440;-2.054;2023-07-29T09:27:32;99289.16;;;24.57;45.73
77023;BME280;65952;51.440;-2.054;2023-07-29T09:30:03;99297.69;;;24.90;44.16
77023;BME280;65952;51.440;-2.054;2023-07-29T09:32:30;99298.41;;;25.60;44.22
77023;BME280;65952;51.440;-2.054;2023-07-29T09:34:55;99289.72;;;26.34;41.99
77023;BME280;65952;51.440;-2.054;2023-07-29T09:37:22;99298.06;;;27.14;41.33
77023;BME280;65952;51.440;-2.054;2023-07-29T09:39:49;99285.44;;;27.83;38.96
77023;BME280;65952;51.440;-2.054;2023-07-29T09:42:19;99291.09;;;27.64;39.37
77023;BME280;65952;51.440;-2.054;2023-07-29T09:44:45;99298.94;;;27.43;38.83
77023;BME280;65952;51.440;-2.054;2023-07-29T09:47:22;99303.63;;;26.95;38.65
77023;BME280;65952;51.440;-2.054;2023-07-29T09:49:48;99296.94;;;26.49;39.35
77023;BME280;65952;51.440;-2.054;2023-07-29T09:52:16;99303.34;;;25.82;39.64
77023;BME280;65952;51.440;-2.054;2023-07-29T09:54:43;99309.56;;;26.50;39.39
77023;BME280;65952;51.440;-2.054;2023-07-29T09:57:16;99297.47;;;27.17;37.33
77023;BME280;65952;51.440;-2.054;2023-07-29T09:59:42;99300.66;;;27.24;38.15
77023;BME280;65952;51.440;-2.054;2023-07-29T10:02:14;99299.22;;;27.27;38.13
77023;BME280;65952;51.440;-2.054;2023-07-29T10:04:43;99302.56;;;27.38;37.90
77023;BME280;65952;51.440;-2.054;2023-07-29T10:07:11;99314.50;;;27.19;36.92
77023;BME280;65952;51.440;-2.054;2023-07-29T10:09:39;99314.47;;;27.05;38.00
77023;BME280;65952;51.440;-2.054;2023-07-29T10:12:05;99310.75;;;26.63;36.51
77023;BME280;65952;51.440;-2.054;2023-07-29T10:14:31;99313.72;;;26.48;37.07
77023;BME280;65952;51.440;-2.054;2023-07-29T10:16:57;99313.31;;;26.21;36.76
77023;BME280;65952;51.440;-2.054;2023-07-29T10:19:24;99303.88;;;25.84;38.14
77023;BME280;65952;51.440;-2.054;2023-07-29T10:21:51;99301.66;;;25.38;38.62
77023;BME280;65952;51.440;-2.054;2023-07-29T10:24:19;99302.69;;;25.90;38.21
77023;BME280;65952;51.440;-2.054;2023-07-29T10:26:49;99304.03;;;25.93;40.36
77023;BME280;65952;51.440;-2.054;2023-07-29T10:29:19;99304.53;;;26.19;39.32
77023;BME280;65952;51.440;-2.054;2023-07-29T10:31:46;99300.81;;;26.48;37.96
77023;BME280;65952;51.440;-2.054;2023-07-29T10:34:13;99299.69;;;26.11;38.36
77023;BME280;65952;51.440;-2.054;2023-07-29T10:36:39;99313.53;;;25.82;38.42
77023;BME280;65952;51.440;-2.054;2023-07-29T10:39:07;99304.91;;;25.88;39.32
77023;BME280;65952;51.440;-2.054;2023-07-29T10:47:11;99311.78;;;26.86;40.47
77023;BME280;65952;51.440;-2.054;2023-07-29T10:49:43;99318.19;;;27.29;37.90
77023;BME280;65952;51.440;-2.054;2023-07-29T10:52:08;99319.47;;;26.32;37.02
77023;BME280;65952;51.440;-2.054;2023-07-29T10:54:47;99319.75;;;25.87;38.22
77023;BME280;65952;51.440;-2.054;2023-07-29T10:57:30;99324.25;;;25.59;38.56
77023;BME280;65952;51.440;-2.054;2023-07-29T10:59:56;99322.22;;;25.64;39.16
77023;BME280;65952;51.440;-2.054;2023-07-29T11:02:29;99323.34;;;25.39;40.34
77023;BME280;65952;51.440;-2.054;2023-07-29T11:04:56;99316.03;;;25.24;40.30
77023;BME280;65952;51.440;-2.054;2023-07-29T11:07:23;99319.63;;;24.56;40.94
77023;BME280;65952;51.440;-2.054;2023-07-29T11:12:50;99329.16;;;23.53;43.53
77023;BME280;65952;51.440;-2.054;2023-07-29T11:15:25;99338.22;;;23.53;42.79
77023;BME280;65952;51.440;-2.054;2023-07-29T11:18:01;99337.25;;;23.89;43.81
77023;BME280;65952;51.440;-2.054;2023-07-29T11:20:29;99324.44;;;24.34;42.12
77023;BME280;65952;51.440;-2.054;2023-07-29T11:22:58;99328.03;;;24.75;42.82
77023;BME280;65952;51.440;-2.054;2023-07-29T11:25:25;99325.84;;;25.06;40.84
77023;BME280;65952;51.440;-2.054;2023-07-29T11:27:58;99345.19;;;25.55;40.92
77023;BME280;65952;51.440;-2.054;2023-07-29T11:30:24;99332.41;;;25.40;41.10
77023;BME280;65952;51.440;-2.054;2023-07-29T11:32:53;99343.47;;;25.29;40.99
77023;BME280;65952;51.440;-2.054;2023-07-29T11:35:19;99342.06;;;25.03;41.44
77023;BME280;65952;51.440;-2.054;2023-07-29T11:37:47;99339.72;;;24.46;40.55
77023;BME280;65952;51.440;-2.054;2023-07-29T11:40:17;99337.09;;;24.30;39.58
77023;BME280;65952;51.440;-2.054;2023-07-29T11:42:44;99357.72;;;24.17;39.75
77023;BME280;65952;51.440;-2.054;2023-07-29T11:45:10;99355.66;;;23.78;40.44
77023;BME280;65952;51.440;-2.054;2023-07-29T11:47:36;99355.19;;;24.26;42.01
77023;BME280;65952;51.440;-2.054;2023-07-29T11:50:04;99350.16;;;24.49;40.91
77023;BME280;65952;51.440;-2.054;2023-07-29T11:52:32;99352.03;;;24.93;42.31
77023;BME280;65952;51.440;-2.054;2023-07-29T11:54:58;99356.94;;;25.31;40.59
77023;BME280;65952;51.440;-2.054;2023-07-29T11:57:24;99359.78;;;25.50;41.14
77023;BME280;65952;51.440;-2.054;2023-07-29T11:59:50;99350.66;;;25.25;41.66
77023;BME280;65952;51.440;-2.054;2023-07-29T12:02:16;99349.50;;;24.62;41.40
77023;BME280;65952;51.440;-2.054;2023-07-29T12:04:44;99351.03;;;25.13;41.93
77023;BME280;65952;51.440;-2.054;2023-07-29T12:07:10;99363.53;;;24.95;41.75
77023;BME280;65952;51.440;-2.054;2023-07-29T12:09:38;99370.50;;;24.82;41.50
77023;BME280;65952;51.440;-2.054;2023-07-29T12:12:05;99374.88;;;24.39;40.92
77023;BME280;65952;51.440;-2.054;2023-07-29T12:14:31;99366.47;;;24.75;42.49
77023;BME280;65952;51.440;-2.054;2023-07-29T12:17:00;99368.19;;;24.65;43.37
77023;BME280;65952;51.440;-2.054;2023-07-29T12:19:40;99377.00;;;24.52;43.31
77023;BME280;65952;51.440;-2.054;2023-07-29T12:22:07;99379.88;;;24.31;43.80
77023;BME280;65952;51.440;-2.054;2023-07-29T12:24:35;99379.91;;;24.21;42.71
77023;BME280;65952;51.440;-2.054;2023-07-29T12:27:01;99382.47;;;23.97;42.95
77023;BME280;65952;51.440;-2.054;2023-07-29T12:29:27;99380.09;;;24.40;43.58
77023;BME280;65952;51.440;-2.054;2023-07-29T12:32:00;99383.59;;;24.51;41.12
77023;BME280;65952;51.440;-2.054;2023-07-29T12:34:27;99373.22;;;24.38;41.46
77023;BME280;65952;51.440;-2.054;2023-07-29T12:36:57;99373.19;;;24.48;42.45
77023;BME280;65952;51.440;-2.054;2023-07-29T12:39:27;99368.28;;;24.40;42.22
77023;BME280;65952;51.440;-2.054;2023-07-29T12:41:54;99366.41;;;24.80;42.48
77023;BME280;65952;51.440;-2.054;2023-07-29T12:44:20;99375.91;;;24.53;41.49
77023;BME280;65952;51.440;-2.054;2023-07-29T12:46:47;99373.28;;;24.77;42.03
77023;BME280;65952;51.440;-2.054;2023-07-29T12:49:13;99376.38;;;24.71;40.76
77023;BME280;65952;51.440;-2.054;2023-07-29T12:51:38;99374.88;;;24.39;39.81
77023;BME280;65952;51.440;-2.054;2023-07-29T12:54:04;99383.81;;;24.65;39.65
77023;BME280;65952;51.440;-2.054;2023-07-29T12:56:30;99386.81;;;24.69;39.06
77023;BME280;65952;51.440;-2.054;2023-07-29T12:58:57;99384.09;;;24.98;39.93
77023;BME280;65952;51.440;-2.054;2023-07-29T13:01:23;99383.56;;;25.30;37.50